Time;durP1;ratioP1;P1;durP2;ratioP2;P2;SDS_P1;SDS_P2;PMS_P1;PMS_P2;Temp;Humidity;BMP_temperature;BMP_pressure;BME280_temperature;BME280_humidity;BME280_pressure;Samples;Min_cycle;Max_cycle;Signal;HPM_P1;HPM_P2
2021/04/29 00:00:40;;;;;;;1.47;1.00;;;14.80;74.60;;;;;;5028917;28;20629;-82
2021/04/29 00:03:07;;;;;;;1.50;1.00;;;14.70;74.70;;;;;;5035686;28;20637;-81
2021/04/29 00:05:35;;;;;;;1.47;0.90;;;14.70;74.80;;;;;;5013304;28;20466;-82
2021/04/29 00:08:02;;;;;;;1.50;0.93;;;14.60;74.70;;;;;;5021162;28;20511;-81
2021/04/29 00:10:31;;;;;;;1.50;1.00;;;14.50;75.20;;;;;;5009895;28;20484;-81
2021/04/29 00:12:58;;;;;;;1.47;1.00;;;14.40;75.40;;;;;;5031212;28;20478;-82
2021/04/29 00:15:25;;;;;;;1.47;1.00;;;14.40;75.50;;;;;;5014193;28;20466;-82
2021/04/29 00:17:51;;;;;;;1.50;1.00;;;14.30;75.70;;;;;;5011097;28;20521;-82
2021/04/29 00:20:20;;;;;;;1.50;1.00;;;14.20;76.00;;;;;;5010181;28;20491;-81
2021/04/29 00:22:47;;;;;;;1.50;0.90;;;14.20;76.70;;;;;;5010849;28;20480;-81
2021/04/29 00:25:15;;;;;;;1.47;1.00;;;14.10;76.80;;;;;;5007789;28;20471;-81
2021/04/29 00:27:41;;;;;;;1.40;1.00;;;14.10;76.90;;;;;;5022590;28;20914;-82
2021/04/29 00:30:09;;;;;;;1.47;1.00;;;14.00;77.60;;;;;;5028899;28;20494;-82
2021/04/29 00:32:37;;;;;;;1.50;1.00;;;14.00;78.30;;;;;;5033332;28;21195;-82
2021/04/29 00:35:03;;;;;;;1.47;1.00;;;13.90;78.00;;;;;;5018986;28;20483;-81
2021/04/29 00:37:29;;;;;;;1.50;0.97;;;13.80;77.60;;;;;;5026800;28;20500;-82
2021/04/29 00:39:57;;;;;;;1.50;1.10;;;13.80;77.50;;;;;;5035458;28;20490;-82
2021/04/29 00:42:23;;;;;;;1.50;1.00;;;13.70;78.10;;;;;;5032593;28;20486;-80
2021/04/29 00:44:49;;;;;;;1.50;1.00;;;13.70;78.60;;;;;;5036592;28;20475;-80
2021/04/29 00:47:16;;;;;;;1.50;1.00;;;13.60;78.40;;;;;;5028926;28;20898;-80
2021/04/29 00:49:42;;;;;;;1.50;1.00;;;13.60;79.00;;;;;;5039357;28;20487;-80
2021/04/29 00:52:09;;;;;;;1.47;1.00;;;13.60;79.10;;;;;;5031175;28;20512;-82
2021/04/29 00:54:35;;;;;;;1.47;1.00;;;13.50;79.70;;;;;;5035331;28;20464;-81
2021/04/29 00:57:02;;;;;;;1.50;1.00;;;13.50;79.40;;;;;;5030456;28;20482;-82
2021/04/29 00:59:29;;;;;;;1.47;1.00;;;13.50;79.80;;;;;;5034341;28;20483;-81
2021/04/29 01:02:00;;;;;;;1.50;1.00;;;13.40;80.10;;;;;;5032591;28;20497;-81
2021/04/29 01:04:31;;;;;;;1.47;1.00;;;13.40;79.60;;;;;;5039509;28;20463;-82
2021/04/29 01:06:59;;;;;;;1.47;1.00;;;13.30;79.50;;;;;;5029839;28;20475;-81
2021/04/29 01:09:31;;;;;;;1.47;1.00;;;13.30;79.50;;;;;;5034871;28;21057;-82
2021/04/29 01:12:04;;;;;;;1.47;1.00;;;13.20;78.80;;;;;;5031949;28;20478;-81
2021/04/29 01:14:32;;;;;;;1.50;1.00;;;13.10;78.80;;;;;;5032386;28;20466;-82
2021/04/29 01:16:59;;;;;;;1.43;1.00;;;13.10;79.10;;;;;;5023527;28;20476;-80
2021/04/29 01:19:34;;;;;;;1.47;1.00;;;13.10;79.50;;;;;;5035969;28;20483;-81
2021/04/29 01:22:01;;;;;;;1.50;1.10;;;13.10;79.20;;;;;;5026716;28;20470;-82
2021/04/29 01:24:29;;;;;;;1.47;1.00;;;13.10;78.60;;;;;;5037415;28;20468;-81
2021/04/29 01:27:00;;;;;;;1.50;1.10;;;13.10;79.20;;;;;;5024954;28;20537;-82
2021/04/29 01:29:30;;;;;;;1.43;0.90;;;13.10;78.90;;;;;;5033083;28;20492;-81
2021/04/29 01:31:58;;;;;;;1.50;1.00;;;13.10;79.10;;;;;;5024671;28;20471;-81
2021/04/29 01:34:37;;;;;;;1.47;0.90;;;13.10;78.90;;;;;;5035417;28;20473;-82
2021/04/29 01:37:04;;;;;;;1.50;1.03;;;13.10;79.20;;;;;;5025975;28;20475;-84
2021/04/29 01:39:30;;;;;;;1.47;1.03;;;13.10;79.30;;;;;;5034857;28;20495;-83
2021/04/29 01:41:59;;;;;;;1.47;0.90;;;13.20;79.10;;;;;;5031752;28;20479;-81
2021/04/29 01:44:27;;;;;;;1.50;1.00;;;13.20;79.00;;;;;;5031700;28;20479;-82
2021/04/29 01:46:54;;;;;;;1.47;1.00;;;13.20;79.20;;;;;;5030071;28;20486;-81
2021/04/29 01:49:20;;;;;;;1.50;1.00;;;13.30;79.10;;;;;;5029858;28;20487;-82
2021/04/29 01:51:47;;;;;;;1.47;0.90;;;13.30;79.10;;;;;;5019344;28;20485;-82
2021/04/29 01:54:16;;;;;;;1.40;0.93;;;13.30;79.60;;;;;;5029532;28;20476;-83
2021/04/29 01:56:43;;;;;;;1.43;1.00;;;13.40;79.70;;;;;;5028295;28;20487;-81
2021/04/29 01:59:11;;;;;;;1.50;1.00;;;13.40;79.90;;;;;;5034146;28;20546;-82
2021/04/29 02:01:39;;;;;;;1.47;1.00;;;13.40;80.00;;;;;;5022799;28;20478;-82
2021/04/29 02:04:06;;;;;;;1.47;0.97;;;13.40;79.80;;;;;;5032448;28;20464;-82
2021/04/29 02:06:32;;;;;;;1.40;0.90;;;13.50;80.10;;;;;;5030408;28;20471;-82
2021/04/29 02:08:58;;;;;;;1.50;1.00;;;13.50;79.80;;;;;;5037327;28;20495;-82
2021/04/29 02:11:26;;;;;;;1.50;1.00;;;13.50;80.00;;;;;;5021791;28;21086;-82
2021/04/29 02:13:54;;;;;;;1.47;1.00;;;13.50;79.80;;;;;;5034721;28;21129;-81
2021/04/29 02:16:28;;;;;;;1.50;1.00;;;13.50;80.10;;;;;;5026859;28;20493;-82
2021/04/29 02:18:56;;;;;;;1.40;1.00;;;13.50;79.70;;;;;;5034714;28;20497;-81
2021/04/29 02:21:22;;;;;;;1.40;1.00;;;13.50;79.90;;;;;;5012248;28;20485;-83
2021/04/29 02:23:49;;;;;;;1.50;1.00;;;13.50;80.00;;;;;;5034179;28;20452;-82
2021/04/29 02:26:18;;;;;;;1.47;0.90;;;13.50;80.10;;;;;;5020514;28;20481;-81
2021/04/29 02:28:45;;;;;;;1.50;1.00;;;13.50;80.20;;;;;;5036538;28;20546;-82
2021/04/29 02:31:12;;;;;;;1.50;1.00;;;13.50;79.90;;;;;;5018935;28;20495;-82
2021/04/29 02:33:40;;;;;;;1.43;0.90;;;13.50;80.50;;;;;;5040501;28;20498;-82
2021/04/29 02:36:09;;;;;;;1.47;1.00;;;13.50;79.90;;;;;;5023170;28;20495;-81
2021/04/29 02:38:37;;;;;;;1.50;1.00;;;13.50;80.20;;;;;;5039515;28;20550;-81
2021/04/29 02:41:04;;;;;;;1.47;1.00;;;13.50;80.20;;;;;;5019743;28;20564;-81
2021/04/29 02:43:30;;;;;;;1.50;1.00;;;13.60;80.70;;;;;;5035726;28;20874;-81
2021/04/29 02:45:57;;;;;;;1.50;1.00;;;13.50;80.70;;;;;;5015917;28;20467;-82
2021/04/29 02:48:24;;;;;;;1.43;1.00;;;13.50;81.10;;;;;;5034598;28;20464;-82
2021/04/29 02:50:51;;;;;;;1.47;1.00;;;13.50;80.40;;;;;;5013271;28;20506;-81
2021/04/29 02:53:19;;;;;;;1.50;1.10;;;13.50;80.30;;;;;;5035556;28;20460;-82
2021/04/29 02:55:47;;;;;;;1.50;1.00;;;13.50;80.50;;;;;;5029463;28;20683;-82
2021/04/29 02:58:15;;;;;;;1.50;1.00;;;13.50;81.00;;;;;;5034554;28;20483;-82
2021/04/29 03:00:43;;;;;;;1.40;0.97;;;13.50;81.20;;;;;;5024515;28;20498;-82
2021/04/29 03:03:09;;;;;;;1.47;1.00;;;13.40;80.80;;;;;;5035081;28;20480;-81
2021/04/29 03:05:37;;;;;;;1.50;1.00;;;13.40;81.00;;;;;;5030504;28;20908;-81
2021/04/29 03:08:05;;;;;;;1.50;1.00;;;13.40;81.10;;;;;;5028722;28;20510;-81
2021/04/29 03:10:33;;;;;;;1.43;1.00;;;13.40;81.50;;;;;;5026558;28;20486;-80
2021/04/29 03:12:59;;;;;;;1.50;1.10;;;13.40;81.20;;;;;;5033268;28;20479;-83
2021/04/29 03:15:26;;;;;;;1.40;0.97;;;13.40;81.80;;;;;;5026221;28;21103;-80
2021/04/29 03:17:52;;;;;;;1.43;0.93;;;13.30;81.30;;;;;;5025873;28;20477;-81
2021/04/29 03:20:19;;;;;;;1.50;1.00;;;13.30;81.40;;;;;;5024174;28;20573;-81
2021/04/29 03:22:45;;;;;;;1.50;0.97;;;13.30;81.80;;;;;;5034465;28;20477;-81
2021/04/29 03:25:13;;;;;;;1.43;1.00;;;13.30;81.50;;;;;;5032072;28;20456;-82
2021/04/29 03:27:40;;;;;;;1.47;1.00;;;13.30;81.60;;;;;;5032815;28;20570;-81
2021/04/29 03:30:08;;;;;;;1.50;1.00;;;13.30;82.20;;;;;;5021525;28;20575;-81
2021/04/29 03:32:34;;;;;;;1.47;1.00;;;13.30;82.10;;;;;;5027838;28;20474;-82
2021/04/29 03:35:00;;;;;;;1.43;0.90;;;13.30;82.40;;;;;;5028280;28;20460;-80
2021/04/29 03:37:26;;;;;;;1.50;1.00;;;13.20;82.50;;;;;;5028241;28;20874;-81
2021/04/29 03:39:53;;;;;;;1.50;0.90;;;13.20;82.60;;;;;;5034815;28;20491;-79
2021/04/29 03:42:20;;;;;;;1.40;1.00;;;13.20;83.10;;;;;;5026671;28;20800;-81
2021/04/29 03:44:46;;;;;;;1.47;0.90;;;13.10;83.40;;;;;;5030723;28;20478;-81
2021/04/29 03:47:12;;;;;;;1.47;1.00;;;13.10;83.40;;;;;;5029778;28;20477;-80
2021/04/29 03:49:39;;;;;;;1.43;1.00;;;13.10;83.20;;;;;;5037490;28;20495;-82
2021/04/29 03:52:05;;;;;;;1.47;0.90;;;13.10;83.40;;;;;;5030728;28;20489;-81
2021/04/29 03:54:32;;;;;;;1.50;0.97;;;13.10;83.60;;;;;;5030387;28;20467;-80
2021/04/29 03:56:58;;;;;;;1.50;1.00;;;13.10;84.00;;;;;;5028254;28;20481;-81
2021/04/29 03:59:25;;;;;;;1.47;1.00;;;13.00;83.80;;;;;;5038661;28;20905;-81
2021/04/29 04:01:51;;;;;;;1.40;1.00;;;13.00;83.70;;;;;;5025362;28;20895;-79
2021/04/29 04:04:18;;;;;;;1.43;1.00;;;13.00;84.00;;;;;;5038951;28;20459;-83
2021/04/29 04:06:44;;;;;;;1.50;1.00;;;13.00;84.50;;;;;;5024205;28;20483;-80
2021/04/29 04:09:11;;;;;;;1.43;1.00;;;13.00;84.20;;;;;;5030850;28;20514;-80
2021/04/29 04:11:37;;;;;;;1.47;1.00;;;12.90;84.60;;;;;;5019223;28;20678;-81
2021/04/29 04:14:03;;;;;;;1.47;1.00;;;12.90;84.70;;;;;;5034933;28;20526;-80
2021/04/29 04:16:31;;;;;;;1.50;1.00;;;12.90;85.00;;;;;;5029187;28;20539;-80
2021/04/29 04:18:57;;;;;;;1.50;1.00;;;12.90;85.20;;;;;;5038019;28;20460;-79
2021/04/29 04:21:23;;;;;;;1.47;1.00;;;12.80;85.40;;;;;;5024980;28;20482;-80
2021/04/29 04:23:50;;;;;;;1.47;1.00;;;12.80;85.60;;;;;;5041379;28;20477;-81
2021/04/29 04:26:17;;;;;;;1.50;1.00;;;12.80;85.30;;;;;;5020977;28;20481;-80
2021/04/29 04:28:43;;;;;;;1.43;1.00;;;12.70;86.10;;;;;;5023953;28;20471;-81
2021/04/29 04:31:10;;;;;;;1.50;1.10;;;12.70;86.30;;;;;;5006397;28;20482;-79
2021/04/29 04:33:37;;;;;;;1.47;1.00;;;12.70;86.00;;;;;;5039582;28;21091;-82
2021/04/29 04:36:04;;;;;;;1.50;1.00;;;12.70;86.80;;;;;;5004170;28;21056;-80
2021/04/29 04:38:30;;;;;;;1.50;1.00;;;12.60;86.90;;;;;;5020136;28;20471;-80
2021/04/29 04:40:57;;;;;;;1.50;1.10;;;12.60;86.30;;;;;;4995140;28;20497;-81
2021/04/29 04:43:23;;;;;;;1.43;1.00;;;12.60;86.90;;;;;;5044480;28;20465;-80
2021/04/29 04:45:50;;;;;;;1.43;1.00;;;12.60;87.00;;;;;;5021148;28;20610;-79
2021/04/29 04:48:17;;;;;;;1.50;1.00;;;12.60;87.00;;;;;;5029519;28;20467;-79
2021/04/29 04:50:44;;;;;;;1.50;1.03;;;12.60;87.20;;;;;;5004864;28;20754;-80
2021/04/29 04:53:11;;;;;;;1.50;1.10;;;12.50;87.10;;;;;;4990336;28;20481;-82
2021/04/29 04:55:42;;;;;;;1.43;1.00;;;12.50;86.70;;;;;;5004657;28;20970;-82
2021/04/29 04:58:09;;;;;;;1.50;1.17;;;12.50;86.80;;;;;;5027750;28;20892;-82
2021/04/29 05:00:35;;;;;;;1.50;1.00;;;12.50;86.90;;;;;;5025961;28;20579;-81
2021/04/29 05:03:02;;;;;;;1.50;1.00;;;12.50;86.70;;;;;;5031123;28;20649;-79
2021/04/29 05:05:28;;;;;;;1.43;1.00;;;12.40;86.40;;;;;;5011443;28;20468;-79
2021/04/29 05:07:59;;;;;;;1.47;1.00;;;12.40;86.70;;;;;;5023924;28;20501;-81
2021/04/29 05:10:25;;;;;;;1.50;1.00;;;12.30;86.40;;;;;;5026033;28;21032;-80
2021/04/29 05:12:52;;;;;;;1.50;1.00;;;12.30;86.30;;;;;;5015050;28;20522;-82
2021/04/29 05:15:18;;;;;;;1.50;1.00;;;12.30;86.60;;;;;;5021653;28;20934;-81
2021/04/29 05:17:44;;;;;;;2.07;1.87;;;12.20;86.20;;;;;;5020179;28;20482;-81
2021/04/29 05:20:11;;;;;;;1.50;1.00;;;12.20;86.80;;;;;;5025897;28;20847;-79
2021/04/29 05:22:38;;;;;;;1.47;1.00;;;12.20;86.70;;;;;;5025024;28;20475;-80
2021/04/29 05:25:06;;;;;;;1.47;1.00;;;12.10;86.70;;;;;;5033250;28;20941;-77
2021/04/29 05:27:32;;;;;;;1.50;1.00;;;12.10;87.00;;;;;;5026250;28;20565;-80
2021/04/29 05:29:59;;;;;;;1.43;1.00;;;12.10;87.00;;;;;;5021102;28;20483;-79
2021/04/29 05:32:25;;;;;;;2.17;1.97;;;12.10;87.00;;;;;;5021263;28;20471;-80
2021/04/29 05:34:51;;;;;;;1.50;1.23;;;12.10;87.60;;;;;;5026356;28;20755;-79
2021/04/29 05:37:18;;;;;;;1.50;1.00;;;12.20;87.80;;;;;;5014358;28;20503;-80
2021/04/29 05:39:45;;;;;;;1.47;1.00;;;12.20;87.80;;;;;;5011029;28;20495;-81
2021/04/29 05:42:12;;;;;;;1.47;1.00;;;12.30;87.00;;;;;;5013376;28;20484;-79
2021/04/29 05:44:38;;;;;;;1.50;1.00;;;12.30;87.10;;;;;;5030503;28;20561;-80
2021/04/29 05:47:04;;;;;;;1.50;1.00;;;12.40;86.80;;;;;;5028403;28;20486;-80
2021/04/29 05:49:31;;;;;;;1.50;1.03;;;12.50;87.20;;;;;;5027609;28;20582;-80
2021/04/29 05:51:57;;;;;;;1.50;0.97;;;12.60;87.20;;;;;;5014226;28;20509;-82
2021/04/29 05:54:24;;;;;;;1.47;1.00;;;12.70;86.50;;;;;;5023362;28;20468;-80
2021/04/29 05:56:50;;;;;;;1.40;1.00;;;12.80;86.50;;;;;;5014163;28;20840;-81
2021/04/29 05:59:18;;;;;;;1.43;1.00;;;12.90;86.60;;;;;;5033238;28;20523;-79
2021/04/29 06:01:44;;;;;;;1.43;1.00;;;12.90;86.40;;;;;;5025333;28;20500;-80
2021/04/29 06:04:10;;;;;;;1.50;1.00;;;13.00;86.20;;;;;;5011055;28;20687;-79
2021/04/29 06:06:37;;;;;;;1.50;1.00;;;13.20;86.00;;;;;;5014851;28;20551;-79
2021/04/29 06:09:05;;;;;;;1.50;1.00;;;13.30;85.30;;;;;;5035708;28;20495;-77
2021/04/29 06:11:31;;;;;;;1.50;1.10;;;13.50;85.40;;;;;;5010112;28;20484;-79
2021/04/29 06:13:58;;;;;;;1.50;1.00;;;13.70;85.00;;;;;;5010839;28;20467;-80
2021/04/29 06:16:25;;;;;;;1.60;1.27;;;13.80;84.50;;;;;;5005464;28;20605;-79
2021/04/29 06:18:51;;;;;;;1.50;1.10;;;14.00;84.10;;;;;;5032569;28;20493;-77
2021/04/29 06:21:17;;;;;;;1.50;1.00;;;14.20;83.70;;;;;;5028123;28;20509;-78
2021/04/29 06:23:44;;;;;;;1.50;1.00;;;14.30;83.10;;;;;;5037693;28;20936;-80
2021/04/29 06:26:10;;;;;;;1.50;1.00;;;14.40;82.70;;;;;;5025315;28;20487;-79
2021/04/29 06:28:36;;;;;;;1.50;1.00;;;14.40;82.40;;;;;;5037288;28;20471;-79
2021/04/29 06:31:02;;;;;;;1.50;1.00;;;14.50;81.60;;;;;;5026715;28;20499;-79
2021/04/29 06:33:30;;;;;;;1.50;0.90;;;14.50;81.30;;;;;;5051325;28;20475;-80
2021/04/29 06:35:56;;;;;;;1.40;0.97;;;14.60;81.10;;;;;;5010970;28;20471;-78
2021/04/29 06:38:23;;;;;;;1.43;0.90;;;14.60;80.80;;;;;;5046656;28;20476;-78
2021/04/29 06:40:49;;;;;;;1.43;0.90;;;14.60;80.90;;;;;;5017351;28;20596;-82
2021/04/29 06:43:16;;;;;;;3.43;3.17;;;14.50;80.80;;;;;;5040067;28;20460;-78
2021/04/29 06:45:42;;;;;;;2.73;2.50;;;14.60;81.10;;;;;;5033373;28;20467;-81
2021/04/29 06:48:08;;;;;;;1.50;1.30;;;14.70;80.80;;;;;;5027397;28;20578;-80
2021/04/29 06:50:36;;;;;;;1.50;1.00;;;14.80;80.70;;;;;;5028554;28;20491;-80
2021/04/29 06:53:03;;;;;;;1.43;0.90;;;15.00;80.90;;;;;;5033958;28;20487;-81
2021/04/29 06:55:30;;;;;;;1.50;1.00;;;15.20;80.70;;;;;;5025264;28;20467;-77
2021/04/29 06:57:57;;;;;;;1.73;1.47;;;15.30;80.40;;;;;;5031424;28;20478;-78
2021/04/29 07:00:24;;;;;;;11.93;2.90;;;15.40;80.20;;;;;;5030439;28;20562;-79
2021/04/29 07:02:50;;;;;;;1.47;0.90;;;15.60;79.80;;;;;;5031753;28;20494;-78
2021/04/29 07:05:17;;;;;;;1.50;0.90;;;15.80;79.80;;;;;;5030190;28;20558;-78
2021/04/29 07:07:44;;;;;;;1.87;1.20;;;15.90;79.10;;;;;;5033396;28;20474;-80
2021/04/29 07:10:12;;;;;;;1.47;1.00;;;15.90;78.80;;;;;;5027004;28;20566;-78
2021/04/29 07:12:38;;;;;;;1.60;1.10;;;15.80;78.70;;;;;;5030022;28;20546;-80
2021/04/29 07:15:06;;;;;;;1.47;0.90;;;15.80;78.90;;;;;;5031041;28;20467;-78
2021/04/29 07:17:32;;;;;;;1.47;0.90;;;15.70;79.10;;;;;;5034071;28;20478;-77
2021/04/29 07:19:58;;;;;;;1.47;0.90;;;15.80;79.60;;;;;;5027469;28;20487;-78
2021/04/29 07:22:25;;;;;;;1.43;0.90;;;15.90;79.40;;;;;;5031949;28;20483;-79
2021/04/29 07:24:52;;;;;;;1.50;1.10;;;15.90;79.30;;;;;;5022011;28;21095;-80
2021/04/29 07:27:18;;;;;;;1.47;0.90;;;16.00;79.30;;;;;;5030514;28;20507;-79
2021/04/29 07:29:44;;;;;;;1.60;1.43;;;16.10;78.30;;;;;;5031504;28;20869;-77
2021/04/29 07:32:11;;;;;;;1.50;0.90;;;16.00;78.70;;;;;;5026839;28;20513;-82
2021/04/29 07:34:37;;;;;;;1.43;0.90;;;16.00;78.70;;;;;;5038260;28;20489;-77
2021/04/29 07:37:04;;;;;;;1.60;1.40;;;16.10;79.00;;;;;;5022842;28;20490;-78
2021/04/29 07:39:30;;;;;;;1.50;1.10;;;16.20;78.20;;;;;;5027502;28;20578;-79
2021/04/29 07:41:58;;;;;;;1.50;1.00;;;16.30;78.20;;;;;;5024023;28;20477;-78
2021/04/29 07:44:24;;;;;;;1.50;1.00;;;16.50;77.60;;;;;;5036476;28;20470;-78
2021/04/29 07:46:51;;;;;;;1.50;0.90;;;16.70;77.10;;;;;;5029923;28;20516;-79
2021/04/29 07:49:18;;;;;;;1.50;0.90;;;16.90;76.90;;;;;;5030599;28;20535;-80
2021/04/29 07:51:44;;;;;;;1.50;1.00;;;17.10;76.10;;;;;;5022230;28;20490;-78
2021/04/29 07:54:13;;;;;;;1.50;1.00;;;17.20;75.40;;;;;;5034560;28;20570;-79
2021/04/29 07:56:40;;;;;;;1.47;0.90;;;17.10;74.80;;;;;;5030831;28;20522;-79
2021/04/29 07:59:08;;;;;;;1.50;1.10;;;16.80;75.10;;;;;;5037096;28;20490;-79
2021/04/29 08:01:34;;;;;;;1.50;0.97;;;16.60;75.40;;;;;;5028077;28;20479;-79
2021/04/29 08:04:02;;;;;;;1.50;1.00;;;16.40;76.40;;;;;;5044395;28;20450;-79
2021/04/29 08:06:28;;;;;;;1.43;0.90;;;16.30;77.10;;;;;;5032640;28;20483;-79
2021/04/29 08:08:55;;;;;;;1.50;0.90;;;16.40;77.50;;;;;;5035119;28;20473;-79
2021/04/29 08:11:21;;;;;;;1.50;0.90;;;16.50;75.90;;;;;;5024941;28;20486;-77
2021/04/29 08:13:48;;;;;;;1.40;1.00;;;16.60;75.40;;;;;;5037737;28;20675;-80
2021/04/29 08:16:19;;;;;;;2.60;1.93;;;16.60;75.90;;;;;;5025029;28;20482;-78
2021/04/29 08:18:48;;;;;;;1.50;1.10;;;16.80;74.30;;;;;;5040832;28;20463;-78
2021/04/29 08:21:14;;;;;;;1.50;0.97;;;16.80;74.10;;;;;;5032392;28;20803;-79
2021/04/29 08:23:42;;;;;;;1.50;1.00;;;16.90;73.60;;;;;;5042697;28;21077;-79
2021/04/29 08:26:08;;;;;;;1.47;0.90;;;16.90;73.40;;;;;;5023783;28;20508;-80
2021/04/29 08:28:35;;;;;;;1.50;1.00;;;17.00;73.60;;;;;;5035857;28;20529;-79
2021/04/29 08:31:05;;;;;;;1.50;1.00;;;17.00;72.00;;;;;;5016963;28;20487;-79
2021/04/29 08:33:38;;;;;;;1.50;1.10;;;16.90;72.70;;;;;;5046371;28;20463;-79
2021/04/29 08:36:06;;;;;;;1.43;0.90;;;16.80;72.70;;;;;;5025290;28;20466;-80
2021/04/29 08:38:33;;;;;;;1.43;0.90;;;16.80;72.80;;;;;;5032123;28;20463;-78
2021/04/29 08:41:01;;;;;;;1.47;0.90;;;16.90;72.40;;;;;;5021121;28;20499;-79
2021/04/29 08:43:31;;;;;;;1.47;0.90;;;17.00;72.90;;;;;;5040008;28;20993;-78
2021/04/29 08:45:58;;;;;;;1.50;1.00;;;17.10;71.30;;;;;;5007309;28;20483;-80
2021/04/29 08:48:26;;;;;;;1.47;0.90;;;17.30;71.40;;;;;;5042355;28;20467;-80
2021/04/29 08:50:53;;;;;;;1.47;0.90;;;17.40;70.10;;;;;;5001522;28;20575;-80
2021/04/29 08:53:19;;;;;;;1.50;0.90;;;17.50;69.90;;;;;;5038017;28;20504;-79
2021/04/29 08:55:46;;;;;;;1.43;0.90;;;17.60;70.50;;;;;;5005178;28;20540;-78
2021/04/29 08:58:13;;;;;;;1.50;1.20;;;17.50;70.50;;;;;;5041846;28;20479;-77
2021/04/29 09:00:41;;;;;;;1.50;0.90;;;17.60;71.10;;;;;;5010408;28;20840;-78
2021/04/29 09:03:08;;;;;;;1.50;1.00;;;17.70;70.70;;;;;;5015722;28;20476;-78
2021/04/29 09:05:35;;;;;;;1.50;0.90;;;18.00;70.60;;;;;;5012494;28;20468;-78
2021/04/29 09:08:05;;;;;;;2.47;1.43;;;18.00;70.00;;;;;;5028039;28;21030;-80
2021/04/29 09:10:34;;;;;;;1.50;1.03;;;18.10;70.40;;;;;;5010204;28;20487;-79
2021/04/29 09:13:12;;;;;;;1.47;0.90;;;18.20;70.30;;;;;;5023628;28;20479;-78
2021/04/29 09:15:39;;;;;;;1.43;0.90;;;18.40;71.20;;;;;;5003845;28;20465;-79
2021/04/29 09:18:08;;;;;;;1.50;1.00;;;18.40;68.60;;;;;;5034582;28;20488;-79
2021/04/29 09:20:35;;;;;;;1.47;0.90;;;18.30;69.40;;;;;;5020939;28;20498;-78
2021/04/29 09:23:05;;;;;;;1.50;0.90;;;18.20;69.30;;;;;;5028696;28;20560;-81
2021/04/29 09:25:32;;;;;;;1.47;0.90;;;18.10;69.40;;;;;;5020140;28;20468;-80
2021/04/29 09:27:59;;;;;;;1.50;0.90;;;18.10;69.40;;;;;;5032175;28;20475;-80
2021/04/29 09:30:27;;;;;;;1.77;1.67;;;17.90;69.30;;;;;;5026779;28;20541;-78
2021/04/29 09:32:58;;;;;;;1.60;1.30;;;17.80;70.10;;;;;;5022257;28;20692;-78
2021/04/29 09:35:26;;;;;;;1.50;0.90;;;17.80;70.20;;;;;;5025023;28;20464;-78
2021/04/29 09:37:59;;;;;;;1.47;0.90;;;17.70;70.60;;;;;;5022021;28;20490;-79
2021/04/29 09:40:34;;;;;;;1.70;1.20;;;17.70;71.10;;;;;;4998985;28;20987;-77
2021/04/29 09:43:01;;;;;;;1.50;0.90;;;17.60;71.30;;;;;;5013582;28;20487;-79
2021/04/29 09:45:30;;;;;;;1.43;1.00;;;17.50;72.10;;;;;;5019633;28;20472;-79
2021/04/29 09:48:04;;;;;;;1.70;1.43;;;17.60;71.50;;;;;;5022512;28;20491;-79
2021/04/29 09:50:32;;;;;;;1.50;0.90;;;17.50;71.20;;;;;;5020944;28;20760;-80
2021/04/29 09:53:04;;;;;;;1.60;1.37;;;17.30;71.00;;;;;;5017681;28;20596;-80
2021/04/29 09:55:33;;;;;;;1.50;1.10;;;17.20;70.50;;;;;;5020004;28;20476;-81
2021/04/29 09:58:18;;;;;;;1.43;0.90;;;17.10;70.80;;;;;;5026586;28;20553;-81
2021/04/29 10:00:46;;;;;;;1.47;0.90;;;17.00;71.20;;;;;;5023331;28;21025;-80
2021/04/29 10:03:13;;;;;;;1.50;0.90;;;17.00;71.70;;;;;;5013205;28;20479;-81
2021/04/29 10:05:41;;;;;;;1.47;0.90;;;17.00;71.90;;;;;;5023041;28;20463;-81
2021/04/29 10:08:10;;;;;;;1.50;1.13;;;17.00;70.90;;;;;;5026221;28;20487;-79
2021/04/29 10:10:39;;;;;;;1.43;0.90;;;17.00;71.00;;;;;;5023800;28;20500;-80
2021/04/29 10:13:07;;;;;;;1.50;1.00;;;16.90;71.50;;;;;;5024744;28;20503;-80
2021/04/29 10:15:35;;;;;;;1.43;0.90;;;16.90;71.70;;;;;;5025941;28;20475;-79
2021/04/29 10:18:02;;;;;;;1.50;0.90;;;17.00;71.10;;;;;;5028868;28;20490;-80
2021/04/29 10:20:30;;;;;;;1.60;1.10;;;17.00;70.90;;;;;;5023723;28;20519;-78
2021/04/29 10:22:59;;;;;;;1.43;0.90;;;17.10;71.90;;;;;;5035340;28;21010;-78
2021/04/29 10:25:34;;;;;;;1.43;0.90;;;17.20;71.10;;;;;;5030080;28;20459;-78
2021/04/29 10:28:03;;;;;;;1.60;1.00;;;17.40;68.10;;;;;;5031231;28;20490;-80
2021/04/29 10:30:32;;;;;;;2.17;1.97;;;17.40;68.00;;;;;;5021080;28;20491;-80
2021/04/29 10:32:58;;;;;;;1.47;1.00;;;17.50;67.60;;;;;;4993167;28;20491;-76
2021/04/29 10:35:27;;;;;;;1.43;1.00;;;17.60;68.00;;;;;;5010965;28;20928;-77
2021/04/29 10:37:55;;;;;;;1.80;1.50;;;17.70;67.80;;;;;;5022430;28;20482;-79
2021/04/29 10:40:33;;;;;;;1.43;0.90;;;17.70;68.00;;;;;;5005879;28;20527;-80
2021/04/29 10:43:00;;;;;;;1.50;0.90;;;17.80;68.40;;;;;;5021009;28;20688;-82
2021/04/29 10:45:27;;;;;;;1.47;0.90;;;17.80;67.80;;;;;;4997954;28;20457;-79
2021/04/29 10:48:04;;;;;;;1.50;0.90;;;17.70;68.20;;;;;;5025710;28;20620;-82
2021/04/29 10:50:41;;;;;;;1.47;0.90;;;17.70;68.60;;;;;;5005655;28;20516;-80
2021/04/29 10:53:08;;;;;;;1.43;0.90;;;17.60;68.00;;;;;;5023906;28;20492;-80
2021/04/29 10:55:36;;;;;;;1.47;0.90;;;17.40;68.30;;;;;;5001506;28;20461;-79
2021/04/29 10:58:06;;;;;;;1.47;0.90;;;17.20;68.40;;;;;;5021776;28;20477;-81
2021/04/29 11:00:33;;;;;;;1.47;0.90;;;16.90;67.30;;;;;;4997939;28;20583;-80
2021/04/29 11:03:01;;;;;;;1.50;1.00;;;16.50;69.20;;;;;;5026906;28;20478;-80
2021/04/29 11:05:29;;;;;;;1.43;0.90;;;16.10;71.90;;;;;;5007171;28;20471;-79
2021/04/29 11:08:02;;;;;;;1.43;0.90;;;15.70;73.00;;;;;;5018896;28;20482;-78
2021/04/29 11:10:33;;;;;;;1.50;0.93;;;15.20;78.20;;;;;;5016059;28;20501;-77
2021/04/29 11:13:00;;;;;;;1.50;0.90;;;14.80;82.00;;;;;;5024941;28;20893;-79
2021/04/29 11:15:30;;;;;;;1.50;1.00;;;14.40;84.00;;;;;;5016394;28;20562;-78
2021/04/29 11:18:08;;;;;;;1.43;0.90;;;14.10;86.00;;;;;;5018865;28;20576;-79
2021/04/29 11:20:42;;;;;;;1.43;0.90;;;13.90;87.50;;;;;;5018872;28;20495;-80
2021/04/29 11:23:09;;;;;;;1.50;0.90;;;13.80;87.00;;;;;;5026977;28;20522;-80
2021/04/29 11:25:36;;;;;;;1.50;1.00;;;13.80;87.90;;;;;;5025653;28;20462;-80
2021/04/29 11:28:03;;;;;;;1.47;0.90;;;13.80;88.50;;;;;;5025549;28;20489;-79
2021/04/29 11:30:31;;;;;;;1.50;1.00;;;14.20;89.80;;;;;;5015818;28;20482;-79
2021/04/29 11:32:59;;;;;;;1.50;1.10;;;14.70;88.00;;;;;;5029172;28;20557;-76
2021/04/29 11:35:27;;;;;;;1.50;1.00;;;15.10;85.70;;;;;;5015106;28;20455;-77
2021/04/29 11:37:54;;;;;;;1.40;0.90;;;15.40;84.50;;;;;;5016443;28;20611;-78
2021/04/29 11:40:21;;;;;;;1.50;0.90;;;15.60;84.00;;;;;;5020617;28;20503;-77
2021/04/29 11:42:52;;;;;;;1.47;0.90;;;15.70;81.90;;;;;;5023460;28;20482;-79
2021/04/29 11:45:20;;;;;;;1.50;1.20;;;15.70;82.60;;;;;;5013610;28;20472;-78
2021/04/29 11:47:59;;;;;;;1.50;1.10;;;15.60;79.60;;;;;;5023653;28;20474;-78
2021/04/29 11:50:27;;;;;;;1.43;0.97;;;15.60;80.40;;;;;;5022662;28;20555;-77
2021/04/29 11:53:09;;;;;;;1.43;1.00;;;15.50;80.30;;;;;;5029865;28;20527;-76
2021/04/29 11:55:37;;;;;;;1.50;0.90;;;15.50;80.80;;;;;;5023615;28;20922;-76
2021/04/29 11:58:05;;;;;;;1.50;1.00;;;15.70;80.30;;;;;;5018509;28;20483;-79
2021/04/29 12:00:34;;;;;;;1.50;0.90;;;15.60;79.60;;;;;;5020346;28;20487;-78
2021/04/29 12:03:03;;;;;;;1.47;1.00;;;15.40;78.90;;;;;;5017457;28;20487;-77
2021/04/29 12:05:31;;;;;;;1.50;1.00;;;15.30;79.70;;;;;;5022354;28;20532;-79
2021/04/29 12:07:58;;;;;;;1.50;1.00;;;15.10;78.60;;;;;;5029734;28;20672;-77
2021/04/29 12:10:24;;;;;;;1.43;0.90;;;14.80;79.10;;;;;;5016532;28;20500;-77
2021/04/29 12:12:51;;;;;;;1.50;1.10;;;14.50;78.20;;;;;;5028037;28;20992;-78
2021/04/29 12:15:17;;;;;;;1.47;1.00;;;14.40;79.00;;;;;;5008239;28;20479;-79
2021/04/29 12:17:43;;;;;;;1.50;1.00;;;14.20;78.40;;;;;;5011121;28;20544;-77
2021/04/29 12:20:11;;;;;;;1.70;1.33;;;14.10;79.10;;;;;;4996798;28;20504;-79
2021/04/29 12:22:40;;;;;;;1.50;1.00;;;14.00;79.80;;;;;;5021333;28;20654;-80
2021/04/29 12:25:19;;;;;;;1.47;0.90;;;13.90;79.90;;;;;;5021679;28;20955;-79
2021/04/29 12:27:45;;;;;;;1.50;1.00;;;14.00;80.20;;;;;;5022742;28;20964;-79
2021/04/29 12:30:13;;;;;;;1.40;0.90;;;14.20;79.40;;;;;;4993690;28;20492;-79
2021/04/29 12:32:43;;;;;;;1.47;1.00;;;14.30;77.90;;;;;;5022371;28;21038;-78
2021/04/29 12:35:11;;;;;;;1.50;1.10;;;14.40;77.80;;;;;;5012473;28;20478;-79
2021/04/29 12:37:37;;;;;;;1.50;1.00;;;14.50;77.70;;;;;;5018666;28;20582;-78
2021/04/29 12:40:04;;;;;;;1.60;1.30;;;14.60;78.10;;;;;;5024409;28;20487;-80
2021/04/29 12:42:31;;;;;;;1.50;1.10;;;14.40;76.10;;;;;;5029540;28;20494;-80
2021/04/29 12:44:59;;;;;;;1.50;1.00;;;14.20;76.50;;;;;;5024902;28;20472;-78
2021/04/29 12:47:27;;;;;;;1.47;0.97;;;14.00;77.10;;;;;;5014041;28;20493;-79
2021/04/29 12:49:57;;;;;;;1.50;1.00;;;13.70;77.90;;;;;;5025761;28;21057;-80